PWSweather.com
Personal Weather Stations
Station Observations
WATERF01
WaterfordIE

WaterfordIE

Lat: 52.2412507, Lon: -7.1414691

Elevation: 65

Station Type: Davis Vantage Vue

Latest ConditionsUpdated 7:00:03 PM GMT Friday, May 22, 2015
Currently Today's Max Today's Min Today's Average
Temperature 62.5°F16.9°C 65.8°F18.8°C 53.7°F12.1°C 59.8°F15.4°C
Dew Point 56.2°F13.4°C 57.3°F14.1°C 52.0°F11.1°C 54.9°F12.7°C
Winds 4.6 mph NNW7.4 kmh NNW 11.5 mph NW18.5 kmh NW - 3.8 mph 6.1 kmh
Wind Gusts 8.1 mph13.0 kmh 16.1 mph25.9 kmh - -
Humidity 80% 94% 71% 84%
Pressure 30.29 in1025.7 mb 30.31 in1026.4 mb 30.27 in1025.1 mb -
Hour Temp Dew Point Humidity Winds Wind Gusts Pressure Precip Precip Rate Daily Precip Total
07:00 PM 62.5°F16.9°C 56.2°F13.4°C 80% 4.6 mph NNW7.4 kmh NNW 8.1 mph13.0 kmh 30.29 in1025.7 mb - 0.00 in0.0 mm 0.00 in0.0 mm
06:50 PM 62.4°F16.9°C 56.1°F13.4°C 80% 3.5 mph W5.6 kmh W 8.1 mph13.0 kmh 30.29 in1025.7 mb - 0.00 in0.0 mm 0.00 in0.0 mm
06:40 PM 62.0°F16.7°C 56.1°F13.4°C 81% 5.8 mph NW9.3 kmh NW 8.1 mph13.0 kmh 30.29 in1025.7 mb - 0.00 in0.0 mm 0.00 in0.0 mm
06:30 PM 61.7°F16.5°C 55.8°F13.2°C 81% 2.3 mph WNW3.7 kmh WNW 5.8 mph9.3 kmh 30.29 in1025.7 mb - 0.00 in0.0 mm 0.00 in0.0 mm
06:20 PM 61.7°F16.5°C 55.8°F13.2°C 81% 6.9 mph NW11.1 kmh NW 13.8 mph22.2 kmh 30.29 in1025.7 mb - 0.00 in0.0 mm 0.00 in0.0 mm
06:10 PM 61.7°F16.5°C 55.8°F13.2°C 81% 6.9 mph NW11.1 kmh NW 11.5 mph18.5 kmh 30.28 in1025.4 mb - 0.00 in0.0 mm 0.00 in0.0 mm
06:00 PM 61.7°F16.5°C 55.8°F13.2°C 81% 9.2 mph NW14.8 kmh NW 12.7 mph20.4 kmh 30.28 in1025.4 mb - 0.00 in0.0 mm 0.00 in0.0 mm
05:50 PM 61.8°F16.6°C 55.9°F13.3°C 81% 9.2 mph NW14.8 kmh NW 13.8 mph22.2 kmh 30.29 in1025.7 mb - 0.00 in0.0 mm 0.00 in0.0 mm
05:40 PM 61.9°F16.6°C 56.0°F13.3°C 81% 6.9 mph NW11.1 kmh NW 11.5 mph18.5 kmh 30.29 in1025.7 mb - 0.00 in0.0 mm 0.00 in0.0 mm
05:30 PM 62.2°F16.8°C 55.9°F13.3°C 80% 11.5 mph NW18.5 kmh NW 16.1 mph25.9 kmh 30.28 in1025.4 mb - 0.00 in0.0 mm 0.00 in0.0 mm
05:20 PM 62.2°F16.8°C 56.3°F13.5°C 81% 9.2 mph NW14.8 kmh NW 12.7 mph20.4 kmh 30.28 in1025.4 mb - 0.00 in0.0 mm 0.00 in0.0 mm
05:10 PM 62.4°F16.9°C 56.1°F13.4°C 80% 9.2 mph NW14.8 kmh NW 16.1 mph25.9 kmh 30.28 in1025.4 mb - 0.00 in0.0 mm 0.00 in0.0 mm
05:00 PM 62.7°F17.1°C 56.1°F13.4°C 79% 10.4 mph NW16.7 kmh NW 16.1 mph25.9 kmh 30.28 in1025.4 mb - 0.00 in0.0 mm 0.00 in0.0 mm
04:50 PM 63.1°F17.3°C 56.1°F13.4°C 78% 9.2 mph NW14.8 kmh NW 11.5 mph18.5 kmh 30.28 in1025.4 mb - 0.00 in0.0 mm 0.00 in0.0 mm
04:40 PM 63.9°F17.7°C 56.6°F13.7°C 77% 8.1 mph W13.0 kmh W 12.7 mph20.4 kmh 30.27 in1025.1 mb - 0.00 in0.0 mm 0.00 in0.0 mm
04:30 PM 65.0°F18.3°C 56.9°F13.8°C 75% 9.2 mph N14.8 kmh N 13.8 mph22.2 kmh 30.27 in1025.1 mb - 0.00 in0.0 mm 0.00 in0.0 mm
04:20 PM 65.0°F18.3°C 56.9°F13.8°C 75% 6.9 mph W11.1 kmh W 11.5 mph18.5 kmh 30.27 in1025.1 mb - 0.00 in0.0 mm 0.00 in0.0 mm
04:10 PM 65.4°F18.6°C 56.9°F13.8°C 74% 9.2 mph NW14.8 kmh NW 15.0 mph24.1 kmh 30.27 in1025.1 mb - 0.00 in0.0 mm 0.00 in0.0 mm
04:00 PM 64.9°F18.3°C 56.4°F13.6°C 74% 5.8 mph NW9.3 kmh NW 9.2 mph14.8 kmh 30.27 in1025.1 mb - 0.00 in0.0 mm 0.00 in0.0 mm
03:50 PM 64.9°F18.3°C 56.8°F13.8°C 75% 5.8 mph WNW9.3 kmh WNW 12.7 mph20.4 kmh 30.27 in1025.1 mb - 0.00 in0.0 mm 0.00 in0.0 mm
03:40 PM 64.6°F18.1°C 56.5°F13.6°C 75% 9.2 mph NW14.8 kmh NW 13.8 mph22.2 kmh 30.27 in1025.1 mb - 0.00 in0.0 mm 0.00 in0.0 mm
03:30 PM 64.7°F18.2°C 55.9°F13.3°C 73% 10.4 mph N16.7 kmh N 13.8 mph22.2 kmh 30.27 in1025.1 mb - 0.00 in0.0 mm 0.00 in0.0 mm
03:20 PM 65.3°F18.5°C 56.8°F13.8°C 74% 10.4 mph NW16.7 kmh NW 16.1 mph25.9 kmh 30.27 in1025.1 mb - 0.00 in0.0 mm 0.00 in0.0 mm
03:10 PM 65.6°F18.7°C 56.3°F13.5°C 72% 8.1 mph WNW13.0 kmh WNW 13.8 mph22.2 kmh 30.27 in1025.1 mb - 0.00 in0.0 mm 0.00 in0.0 mm
03:00 PM 65.7°F18.7°C 56.8°F13.8°C 73% 9.2 mph WNW14.8 kmh WNW 15.0 mph24.1 kmh 30.27 in1025.1 mb - 0.00 in0.0 mm 0.00 in0.0 mm
02:50 PM 65.8°F18.8°C 56.5°F13.6°C 72% 8.1 mph WNW13.0 kmh WNW 11.5 mph18.5 kmh 30.27 in1025.1 mb - 0.00 in0.0 mm 0.00 in0.0 mm
02:40 PM 65.4°F18.6°C 56.5°F13.6°C 73% 5.8 mph NW9.3 kmh NW 11.5 mph18.5 kmh 30.27 in1025.1 mb - 0.00 in0.0 mm 0.00 in0.0 mm
02:30 PM 65.2°F18.4°C 56.3°F13.5°C 73% 6.9 mph WNW11.1 kmh WNW 9.2 mph14.8 kmh 30.27 in1025.1 mb - 0.00 in0.0 mm 0.00 in0.0 mm
02:20 PM 65.2°F18.4°C 57.0°F13.9°C 75% 8.1 mph WNW13.0 kmh WNW 12.7 mph20.4 kmh 30.27 in1025.1 mb - 0.00 in0.0 mm 0.00 in0.0 mm
02:10 PM 64.9°F18.3°C 56.8°F13.8°C 75% 4.6 mph WNW7.4 kmh WNW 8.1 mph13.0 kmh 30.27 in1025.1 mb - 0.00 in0.0 mm 0.00 in0.0 mm
02:00 PM 65.0°F18.3°C 56.5°F13.6°C 74% 8.1 mph NNW13.0 kmh NNW 12.7 mph20.4 kmh 30.28 in1025.4 mb - 0.00 in0.0 mm 0.00 in0.0 mm
01:50 PM 64.6°F18.1°C 56.5°F13.6°C 75% 3.5 mph NW5.6 kmh NW 6.9 mph11.1 kmh 30.28 in1025.4 mb - 0.00 in0.0 mm 0.00 in0.0 mm
01:40 PM 64.0°F17.8°C 56.3°F13.5°C 76% 3.5 mph WNW5.6 kmh WNW 5.8 mph9.3 kmh 30.28 in1025.4 mb - 0.00 in0.0 mm 0.00 in0.0 mm
01:30 PM 63.6°F17.6°C 55.9°F13.3°C 76% 5.8 mph NW9.3 kmh NW 11.5 mph18.5 kmh 30.28 in1025.4 mb - 0.00 in0.0 mm 0.00 in0.0 mm
01:20 PM 63.9°F17.7°C 55.8°F13.2°C 75% 5.8 mph NW9.3 kmh NW 9.2 mph14.8 kmh 30.28 in1025.4 mb - 0.00 in0.0 mm 0.00 in0.0 mm
01:10 PM 63.9°F17.7°C 56.2°F13.4°C 76% 6.9 mph NW11.1 kmh NW 11.5 mph18.5 kmh 30.28 in1025.4 mb - 0.00 in0.0 mm 0.00 in0.0 mm
01:00 PM 63.8°F17.7°C 56.1°F13.4°C 76% 3.5 mph WNW5.6 kmh WNW 6.9 mph11.1 kmh 30.28 in1025.4 mb - 0.00 in0.0 mm 0.00 in0.0 mm
12:50 PM 64.1°F17.8°C 56.0°F13.3°C 75% 5.8 mph WNW9.3 kmh WNW 8.1 mph13.0 kmh 30.28 in1025.4 mb - 0.00 in0.0 mm 0.00 in0.0 mm
12:40 PM 64.1°F17.8°C 56.0°F13.3°C 75% 5.8 mph NW9.3 kmh NW 11.5 mph18.5 kmh 30.28 in1025.4 mb - 0.00 in0.0 mm 0.00 in0.0 mm
12:30 PM 64.5°F18.1°C 56.4°F13.6°C 75% 8.1 mph NW13.0 kmh NW 12.7 mph20.4 kmh 30.28 in1025.4 mb - 0.00 in0.0 mm 0.00 in0.0 mm
12:20 PM 64.7°F18.2°C 56.6°F13.7°C 75% 4.6 mph NW7.4 kmh NW 8.1 mph13.0 kmh 30.28 in1025.4 mb - 0.00 in0.0 mm 0.00 in0.0 mm
12:10 PM 64.3°F17.9°C 55.8°F13.2°C 74% 8.1 mph NW13.0 kmh NW 16.1 mph25.9 kmh 30.27 in1025.1 mb - 0.00 in0.0 mm 0.00 in0.0 mm
12:00 PM 64.4°F18.0°C 56.3°F13.5°C 75% 9.2 mph NW14.8 kmh NW 15.0 mph24.1 kmh 30.28 in1025.4 mb - 0.00 in0.0 mm 0.00 in0.0 mm
11:50 AM 65.0°F18.3°C 56.1°F13.4°C 73% 9.2 mph NW14.8 kmh NW 12.7 mph20.4 kmh 30.28 in1025.4 mb - 0.00 in0.0 mm 0.00 in0.0 mm
11:40 AM 65.2°F18.4°C 55.6°F13.1°C 71% 5.8 mph NW9.3 kmh NW 11.5 mph18.5 kmh 30.28 in1025.4 mb - 0.00 in0.0 mm 0.00 in0.0 mm
11:30 AM 64.9°F18.3°C 56.0°F13.3°C 73% 6.9 mph WNW11.1 kmh WNW 9.2 mph14.8 kmh 30.28 in1025.4 mb - 0.00 in0.0 mm 0.00 in0.0 mm
11:20 AM 65.2°F18.4°C 57.1°F13.9°C 75% 3.5 mph W5.6 kmh W 8.1 mph13.0 kmh 30.28 in1025.4 mb - 0.00 in0.0 mm 0.00 in0.0 mm
11:10 AM 64.7°F18.2°C 57.0°F13.9°C 76% 8.1 mph WNW13.0 kmh WNW 11.5 mph18.5 kmh 30.28 in1025.4 mb - 0.00 in0.0 mm 0.00 in0.0 mm
11:00 AM 64.7°F18.2°C 57.0°F13.9°C 76% 3.5 mph NW5.6 kmh NW 4.6 mph7.4 kmh 30.28 in1025.4 mb - 0.00 in0.0 mm 0.00 in0.0 mm
10:50 AM 64.6°F18.1°C 56.9°F13.8°C 76% 5.8 mph NW9.3 kmh NW 11.5 mph18.5 kmh 30.28 in1025.4 mb - 0.00 in0.0 mm 0.00 in0.0 mm
10:40 AM 64.3°F17.9°C 57.3°F14.1°C 78% 5.8 mph NW9.3 kmh NW 9.2 mph14.8 kmh 30.28 in1025.4 mb - 0.00 in0.0 mm 0.00 in0.0 mm
10:30 AM 63.6°F17.6°C 57.0°F13.9°C 79% 3.5 mph W5.6 kmh W 8.1 mph13.0 kmh 30.28 in1025.4 mb - 0.00 in0.0 mm 0.00 in0.0 mm
10:20 AM 63.2°F17.3°C 56.6°F13.7°C 79% 5.8 mph W9.3 kmh W 11.5 mph18.5 kmh 30.28 in1025.4 mb - 0.00 in0.0 mm 0.00 in0.0 mm
10:10 AM 63.2°F17.3°C 56.6°F13.7°C 79% 6.9 mph NW11.1 kmh NW 9.2 mph14.8 kmh 30.28 in1025.4 mb - 0.00 in0.0 mm 0.00 in0.0 mm
10:00 AM 63.0°F17.2°C 56.8°F13.8°C 80% 8.1 mph NW13.0 kmh NW 12.7 mph20.4 kmh 30.28 in1025.4 mb - 0.00 in0.0 mm 0.00 in0.0 mm
09:50 AM 63.0°F17.2°C 56.4°F13.6°C 79% 9.2 mph NW14.8 kmh NW 12.7 mph20.4 kmh 30.28 in1025.4 mb - 0.00 in0.0 mm 0.00 in0.0 mm
09:40 AM 62.5°F16.9°C 56.9°F13.8°C 82% 2.3 mph WNW3.7 kmh WNW 5.8 mph9.3 kmh 30.29 in1025.7 mb - 0.00 in0.0 mm 0.00 in0.0 mm
09:30 AM 62.4°F16.9°C 56.5°F13.6°C 81% 2.3 mph W3.7 kmh W 5.8 mph9.3 kmh 30.29 in1025.7 mb - 0.00 in0.0 mm 0.00 in0.0 mm
09:20 AM 61.9°F16.6°C 56.7°F13.7°C 83% 3.5 mph W5.6 kmh W 5.8 mph9.3 kmh 30.28 in1025.4 mb - 0.00 in0.0 mm 0.00 in0.0 mm
09:10 AM 60.9°F16.1°C 56.0°F13.3°C 84% 1.2 mph WNW1.9 kmh WNW 2.3 mph3.7 kmh 30.29 in1025.7 mb - 0.00 in0.0 mm 0.00 in0.0 mm
09:00 AM 60.2°F15.7°C 55.6°F13.1°C 85% Calm Calm 4.6 mph7.4 kmh 30.29 in1025.7 mb - 0.00 in0.0 mm 0.00 in0.0 mm
08:50 AM 59.5°F15.3°C 55.3°F12.9°C 86% Calm Calm -- 30.29 in1025.7 mb - 0.00 in0.0 mm 0.00 in0.0 mm
08:40 AM 59.2°F15.1°C 55.0°F12.8°C 86% 1.2 mph W1.9 kmh W 2.3 mph3.7 kmh 30.29 in1025.7 mb - 0.00 in0.0 mm 0.00 in0.0 mm
08:30 AM 58.9°F14.9°C 55.1°F12.8°C 87% 4.6 mph WNW7.4 kmh WNW 6.9 mph11.1 kmh 30.29 in1025.7 mb - 0.00 in0.0 mm 0.00 in0.0 mm
08:20 AM 58.7°F14.8°C 54.8°F12.7°C 87% 3.5 mph NW5.6 kmh NW 5.8 mph9.3 kmh 30.29 in1025.7 mb - 0.00 in0.0 mm 0.00 in0.0 mm
08:10 AM 58.2°F14.6°C 54.6°F12.6°C 88% 2.3 mph NW3.7 kmh NW 5.8 mph9.3 kmh 30.29 in1025.7 mb - 0.00 in0.0 mm 0.00 in0.0 mm
08:00 AM 58.2°F14.6°C 54.7°F12.6°C 88% 1.2 mph NW1.9 kmh NW 2.3 mph3.7 kmh 30.29 in1025.7 mb - 0.00 in0.0 mm 0.00 in0.0 mm
07:50 AM 58.2°F14.6°C 55.0°F12.8°C 89% Calm Calm -- 30.29 in1025.7 mb - 0.00 in0.0 mm 0.00 in0.0 mm
07:40 AM 57.8°F14.3°C 54.9°F12.7°C 90% Calm Calm -- 30.29 in1025.7 mb - 0.00 in0.0 mm 0.00 in0.0 mm
07:30 AM 57.4°F14.1°C 54.8°F12.7°C 91% Calm Calm -- 30.29 in1025.7 mb - 0.00 in0.0 mm 0.00 in0.0 mm
07:20 AM 56.9°F13.8°C 54.3°F12.4°C 91% Calm Calm -- 30.29 in1025.7 mb - 0.00 in0.0 mm 0.00 in0.0 mm
07:10 AM 56.4°F13.6°C 54.1°F12.3°C 92% Calm Calm -- 30.29 in1025.7 mb - 0.00 in0.0 mm 0.00 in0.0 mm
07:00 AM 55.9°F13.3°C 53.9°F12.2°C 93% Calm Calm 1.2 mph1.9 kmh 30.29 in1025.7 mb - 0.00 in0.0 mm 0.00 in0.0 mm
06:50 AM 55.5°F13.1°C 53.8°F12.1°C 94% Calm Calm -- 30.29 in1025.7 mb - 0.00 in0.0 mm 0.00 in0.0 mm
06:40 AM 55.2°F12.9°C 53.5°F11.9°C 94% Calm Calm -- 30.29 in1025.7 mb - 0.00 in0.0 mm 0.00 in0.0 mm
06:30 AM 54.9°F12.7°C 53.2°F11.8°C 94% Calm Calm -- 30.29 in1025.7 mb - 0.00 in0.0 mm 0.00 in0.0 mm
06:20 AM 54.8°F12.7°C 53.1°F11.7°C 94% 2.3 mph SE3.7 kmh SE 4.6 mph7.4 kmh 30.29 in1025.7 mb - 0.00 in0.0 mm 0.00 in0.0 mm
06:10 AM 54.8°F12.7°C 53.1°F11.7°C 94% 1.2 mph SE1.9 kmh SE 2.3 mph3.7 kmh 30.29 in1025.7 mb - 0.00 in0.0 mm 0.00 in0.0 mm
06:00 AM 54.5°F12.5°C 52.8°F11.6°C 94% Calm Calm -- 30.29 in1025.7 mb - 0.00 in0.0 mm 0.00 in0.0 mm
05:50 AM 54.2°F12.3°C 52.5°F11.4°C 94% Calm Calm -- 30.29 in1025.7 mb - 0.00 in0.0 mm 0.00 in0.0 mm
05:40 AM 54.0°F12.2°C 52.3°F11.3°C 94% Calm Calm -- 30.29 in1025.7 mb - 0.00 in0.0 mm 0.00 in0.0 mm
05:30 AM 53.9°F12.2°C 52.2°F11.2°C 94% Calm Calm -- 30.29 in1025.7 mb - 0.00 in0.0 mm 0.00 in0.0 mm
05:20 AM 53.8°F12.1°C 52.1°F11.2°C 94% Calm Calm -- 30.29 in1025.7 mb - 0.00 in0.0 mm 0.00 in0.0 mm
05:10 AM 53.8°F12.1°C 52.1°F11.2°C 94% Calm Calm -- 30.29 in1025.7 mb - 0.00 in0.0 mm 0.00 in0.0 mm
05:00 AM 53.8°F12.1°C 52.1°F11.2°C 94% Calm Calm -- 30.29 in1025.7 mb - 0.00 in0.0 mm 0.00 in0.0 mm
04:50 AM 53.7°F12.1°C 52.0°F11.1°C 94% Calm Calm -- 30.29 in1025.7 mb - 0.00 in0.0 mm 0.00 in0.0 mm
04:40 AM 53.7°F12.1°C 52.0°F11.1°C 94% Calm Calm -- 30.28 in1025.4 mb - 0.00 in0.0 mm 0.00 in0.0 mm
04:30 AM 53.8°F12.1°C 52.1°F11.2°C 94% Calm Calm -- 30.28 in1025.4 mb - 0.00 in0.0 mm 0.00 in0.0 mm
04:20 AM 53.9°F12.2°C 52.2°F11.2°C 94% Calm Calm -- 30.29 in1025.7 mb - 0.00 in0.0 mm 0.00 in0.0 mm
04:10 AM 53.9°F12.2°C 52.2°F11.2°C 94% Calm Calm -- 30.29 in1025.7 mb - 0.00 in0.0 mm 0.00 in0.0 mm
04:00 AM 54.0°F12.2°C 52.3°F11.3°C 94% Calm Calm -- 30.29 in1025.7 mb - 0.00 in0.0 mm 0.00 in0.0 mm
03:50 AM 54.1°F12.3°C 52.1°F11.2°C 93% 1.2 mph SW1.9 kmh SW 2.3 mph3.7 kmh 30.29 in1025.7 mb - 0.00 in0.0 mm 0.00 in0.0 mm
03:40 AM 54.2°F12.3°C 52.2°F11.2°C 93% Calm Calm 2.3 mph3.7 kmh 30.29 in1025.7 mb - 0.00 in0.0 mm 0.00 in0.0 mm
03:30 AM 54.2°F12.3°C 52.2°F11.2°C 93% Calm Calm -- 30.29 in1025.7 mb - 0.00 in0.0 mm 0.00 in0.0 mm
03:20 AM 54.3°F12.4°C 52.3°F11.3°C 93% Calm Calm -- 30.29 in1025.7 mb - 0.00 in0.0 mm 0.00 in0.0 mm
03:10 AM 54.4°F12.4°C 52.5°F11.4°C 93% Calm Calm -- 30.29 in1025.7 mb - 0.00 in0.0 mm 0.00 in0.0 mm
03:00 AM 54.7°F12.6°C 52.4°F11.3°C 92% Calm Calm -- 30.29 in1025.7 mb - 0.00 in0.0 mm 0.00 in0.0 mm
02:50 AM 55.0°F12.8°C 52.7°F11.5°C 92% Calm Calm -- 30.30 in1026.1 mb - 0.00 in0.0 mm 0.00 in0.0 mm
02:40 AM 55.4°F13.0°C 53.1°F11.7°C 92% Calm Calm 1.2 mph1.9 kmh 30.29 in1025.7 mb - 0.00 in0.0 mm 0.00 in0.0 mm
02:30 AM 55.4°F13.0°C 53.1°F11.7°C 92% Calm Calm 2.3 mph3.7 kmh 30.29 in1025.7 mb - 0.00 in0.0 mm 0.00 in0.0 mm
02:20 AM 55.5°F13.1°C 53.2°F11.8°C 92% 2.3 mph NW3.7 kmh NW 4.6 mph7.4 kmh 30.30 in1026.1 mb - 0.00 in0.0 mm 0.00 in0.0 mm
02:10 AM 55.5°F13.1°C 53.2°F11.8°C 92% 2.3 mph NW3.7 kmh NW 2.3 mph3.7 kmh 30.30 in1026.1 mb - 0.00 in0.0 mm 0.00 in0.0 mm
02:00 AM 55.4°F13.0°C 53.1°F11.7°C 92% 2.3 mph NW3.7 kmh NW 2.3 mph3.7 kmh 30.30 in1026.1 mb - 0.00 in0.0 mm 0.00 in0.0 mm
01:50 AM 55.2°F12.9°C 53.2°F11.8°C 93% 3.5 mph NW5.6 kmh NW 5.8 mph9.3 kmh 30.30 in1026.1 mb - 0.00 in0.0 mm 0.00 in0.0 mm
01:40 AM 54.9°F12.7°C 52.9°F11.6°C 93% 1.2 mph NW1.9 kmh NW 4.6 mph7.4 kmh 30.30 in1026.1 mb - 0.00 in0.0 mm 0.00 in0.0 mm
01:30 AM 55.0°F12.8°C 53.0°F11.7°C 93% Calm Calm 2.3 mph3.7 kmh 30.30 in1026.1 mb - 0.00 in0.0 mm 0.00 in0.0 mm
01:20 AM 55.0°F12.8°C 53.0°F11.7°C 93% Calm Calm 2.3 mph3.7 kmh 30.30 in1026.1 mb - 0.00 in0.0 mm 0.00 in0.0 mm
01:10 AM 55.1°F12.8°C 53.1°F11.7°C 93% Calm Calm 1.2 mph1.9 kmh 30.30 in1026.1 mb - 0.00 in0.0 mm 0.00 in0.0 mm
01:00 AM 55.0°F12.8°C 53.0°F11.7°C 93% Calm Calm 1.2 mph1.9 kmh 30.30 in1026.1 mb - 0.00 in0.0 mm 0.00 in0.0 mm
12:50 AM 55.0°F12.8°C 53.0°F11.7°C 93% 1.2 mph W1.9 kmh W 2.3 mph3.7 kmh 30.30 in1026.1 mb - 0.00 in0.0 mm 0.00 in0.0 mm
12:40 AM 55.0°F12.8°C 53.0°F11.7°C 93% 1.2 mph W1.9 kmh W 2.3 mph3.7 kmh 30.30 in1026.1 mb - 0.00 in0.0 mm 0.00 in0.0 mm
12:30 AM 55.0°F12.8°C 53.0°F11.7°C 93% Calm Calm -- 30.30 in1026.1 mb - 0.00 in0.0 mm 0.00 in0.0 mm
12:20 AM 55.1°F12.8°C 53.1°F11.7°C 93% Calm Calm 2.3 mph3.7 kmh 30.30 in1026.1 mb - 0.00 in0.0 mm 0.00 in0.0 mm
12:10 AM 55.4°F13.0°C 53.4°F11.9°C 93% Calm Calm 2.3 mph3.7 kmh 30.31 in1026.4 mb - 0.00 in0.0 mm 0.00 in0.0 mm
12:00 AM 55.5°F13.1°C 53.5°F11.9°C 93% 2.3 mph WNW3.7 kmh WNW 2.3 mph3.7 kmh 30.30 in1026.1 mb - 0.00 in0.0 mm 0.00 in0.0 mm